Weather observations for the past three days for
Wisconsin Rapids, Alexander Field South Wood County Airport
Imperial (Metric)
Date Time (cdt) Wind (mph) Vis. (mi.) Weather Sky Cond. Temperature (ºF) Relative Humidity Wind Chill (°F) Heat Index (°F) Pressure Precipitation (in)
Air Dwpt 6 hour altimeter (in) sea level (mb) 1 hr 3 hr 6 hr
Max. Min.
01 15:54 SW 9 G 17 10.00 A Few Clouds FEW065 91.9 63 38% 93 29.91 1012.1
01 14:54 NW 8 10.00 Fair CLR 91 64 41% 93 29.93 1012.8
01 13:54 Vrbl 3 10.00 Fair CLR 88 64.9 46% 90 29.94 1013.2
01 12:54 N 12 G 16 10.00 Fair CLR 90 63 90 68 41% 91 29.95 1013.5
01 11:54 Calm 10.00 Fair CLR 87.1 64 46% 88 29.96 1013.8
01 10:54 Vrbl 3 10.00 Fair CLR 84 68 59% 87 29.97 1014.1
01 09:54 SW 5 10.00 Fair CLR 81 70 69% 84 29.97 1014.1
01 08:54 Calm 10.00 Fair CLR 73 71.1 94% 29.98 1014.6
01 07:54 Calm 9.00 Fair CLR 70 70 100% 29.97 1014.4
01 06:54 Calm 0.75 Fog/Mist FEW002 SCT120 69.1 69.1 73 69.1 100% 29.95 1013.6
01 05:54 Calm 0.25 Fog VV002 70 70 100% 29.94 1013.2
01 04:54 SW 3 0.25 Fog VV002 70 70 100% 29.93 1012.8
01 03:54 Calm 0.25 Fog VV002 72 72 100% 29.93 1012.8
01 02:54 Calm 0.50 Fog OVC002 73 72 96% 29.93 1012.8
01 01:54 Calm 0.25 Fog VV004 72 72 100% 29.93 1012.6
01 00:54 Calm 0.50 Fog VV003 72 72 84.9 72 100% 29.92 1012.7
31 23:54 Calm 9.00 Mostly Cloudy SCT025 BKN031 75 73.9 96% 73 29.92 1012.3
31 22:54 SW 6 10.00 A Few Clouds FEW033 75.9 73.9 94% 75 29.92 1012.2
31 21:54 SW 5 10.00 Partly Cloudy SCT030 77 73.9 90% 78 29.92 1012.4
31 20:54 SW 5 10.00 Fair CLR 78.1 73.9 87% 81 29.91 1012.3
31 19:54 SW 5 10.00 A Few Clouds FEW100 81 73.9 79% 86 29.9 1011.7
31 18:54 SW 7 10.00 Fair CLR 84.9 73.9 91 84.9 70% 92 29.88 1011.1
31 17:54 SW 8 10.00 Fair CLR 87.1 73 63% 95 29.87 1010.7
31 16:54 S 3 10.00 Fair CLR 86 73 65% 93 29.86 1010.3
31 15:54 SW 3 10.00 Fair CLR 86 73 65% 93 29.86 1010.4
31 14:54 S 7 10.00 Fair CLR 90 73 58% 98 29.85 1010.1
31 13:54 Vrbl 6 10.00 Fair CLR 88 73 61% 96 29.86 1010.5
31 12:54 SW 7 10.00 Fair CLR 84.9 72 84.9 69.1 65% 91 29.88 1011.1
31 11:54 S 5 10.00 Fair CLR 84 71.1 65% 89 29.88 1011.2
31 10:54 Vrbl 6 10.00 Fair CLR 82.9 70 65% 87 29.88 1011.1
31 09:54 SW 6 10.00 Fair CLR 79 69.1 72% 82 29.86 1010.6
31 08:54 SW 6 10.00 Fair CLR 75.9 68 77% 77 29.86 1010.7
31 07:54 Calm 10.00 Fair CLR 72 66.9 84% 29.85 1010.3
31 06:54 SE 3 10.00 Fair CLR 69.1 66 73.9 68 90% 29.85 1010.1
31 05:54 SE 5 10.00 Fair CLR 68 66 93% 29.84 1010.0
31 04:54 SE 3 10.00 Fair CLR 69.1 66 90% 29.85 1010.3
31 03:54 S 3 10.00 Partly Cloudy SCT070 72 66 82% 29.86 1010.6
31 02:54 S 7 10.00 Overcast OVC085 73.9 66 76% 29.87 1010.7
31 01:54 SE 5 10.00 Overcast SCT065 OVC090 72 66.9 84% 29.88 1011.1
31 00:54 SE 5 10.00 Overcast BKN065 OVC085 71.1 68 80.1 70 90% 29.91 1012.1
30 23:54 SE 7 10.00 Mostly Cloudy BKN080 71.1 68 90% 29.92 1012.5
30 22:54 S 5 10.00 A Few Clouds FEW120 72 68 87% 29.94 1013.4
30 21:54 SW 5 10.00 Partly Cloudy SCT120 73 68 84% 29.94 1013.3
30 19:54 Calm 10.00 Fair CLR 75.9 68 77% 77 29.9 1012.0
30 18:54 S 5 10.00 A Few Clouds FEW100 80.1 68 82.9 79 67% 83 29.89 1011.8
30 17:54 SW 7 10.00 Fair CLR 80.1 68 67% 83 29.89 1011.6
30 16:54 SW 8 10.00 Fair CLR 82.9 68 61% 86 29.88 1011.2
30 15:54 SE 6 10.00 Fair CLR 81 66.9 62% 83 29.88 1011.1
30 14:54 S 5 10.00 Fair CLR 80.1 66.9 64% 82 29.88 1011.2
30 13:54 SW 7 10.00 Overcast OVC037 79 66.9 67% 81 29.91 1012.1
30 12:54 Vrbl 7 10.00 Overcast OVC031 81 66.9 81 66 62% 83 29.9 1011.8
30 11:54 Vrbl 3 10.00 Overcast OVC028 79 66 65% 81 29.88 1011.3
30 10:54 W 3 10.00 Fair CLR 77 64.9 66% 79 29.88 1011.3
30 09:54 SE 3 10.00 Fair CLR 75.9 64.9 69% 78 29.89 1011.6
30 08:54 SE 5 10.00 Fair CLR 73 64 74% 29.89 1011.6
30 07:54 E 6 10.00 Fair CLR 69.1 64 84% 29.87 1011.2
30 06:54 SE 3 10.00 Fair CLR 66 64 68 64.9 93% 29.88 1011.6 0.01
30 05:54 SE 3 10.00 Fair CLR 66 64 93% 29.88 1011.3
30 04:54 SE 5 10.00 Mostly Cloudy SCT050 BKN060 66.9 64 91% 29.88 1011.4
30 03:54 SE 3 10.00 Light Rain OVC065 66.9 64 91% 29.9 1012.2 0.01
30 02:54 SE 3 10.00 Mostly Cloudy BKN055 66.9 64 91% 29.9 1012.3 0.01
30 01:54 SE 5 10.00 Fair CLR 68 64 87% 29.92 1012.7
30 00:54 SE 5 10.00 Overcast FEW050 OVC065 68 64 70 66.9 87% 29.93 1013.1
29 23:54 SE 6 10.00 Overcast BKN042 OVC050 68 64 87% 29.94 1013.8
29 22:54 Calm 10.00 Overcast BKN045 OVC055 66.9 63 87% 29.95 1014.1
29 21:54 SE 7 10.00 Overcast OVC050 66.9 63 87% 29.95 1014.0
29 20:54 E 8 10.00 Mostly Cloudy BKN055 68 63 84% 29.95 1013.9
29 19:54 E 7 10.00 Mostly Cloudy BKN031 68 63 84% 29.94 1013.6
29 18:54 SE 6 10.00 Fair CLR 70 63 71.1 66 79% 29.94 1013.5
29 17:54 S 7 10.00 Fair CLR 71.1 62.1 73% 29.94 1013.4
29 16:54 SE 10 10.00 Overcast OVC090 69.1 61 76% 29.94 1013.7
Date Time (cdt) Wind (mph) Vis. (mi.) Weather Sky Cond. Air Dwpt Max. Min. Relative Humidity Wind Chill (°F) Heat Index (°F) altimeter (in) sea level (mb) 1 hr 3 hr 6 hr
6 hour
Temperature (ºF) Pressure Precipitation (in)